Flight Track Log - Related Links

Times and Time Zones

All times are in EDT time to prevent confusion due to time zone crossing. See the N5FG flight status page for this flight to view local times or setup timezone preferences in your user account.

Time Position Orientation Groundspeed Altitude Reporting Facility
EDT Latitude Longitude Course Direction KTS MPH feet Rate Location/Type
Fri 05:27:30 PM 42.4000 -87.8833 124° Southeast 112 129 1,700  Level Chicago TRACON
Fri 05:28:36 PM 42.3833 -87.8500 124° Southeast 133 153 2,600 735 Climbing Chicago TRACON
Fri 05:30:05 PM 42.4383 -87.8103 28° Northeast 163 188 3,600 671 Climbing Chicago Center
Fri 05:31:08 PM 42.4819 -87.8067 North 158 182 4,300 672 Climbing Chicago Center
Fri 05:32:10 PM 42.5231 -87.7981 North 152 175 5,000 581 Climbing Chicago Center
Fri 05:33:12 PM 42.5650 -87.7883 10° North 152 175 5,500 484 Climbing Chicago Center
Fri 05:34:14 PM 42.6083 -87.7792 North 156 180 6,000 242 Climbing Chicago Center
Fri 05:35:16 PM 42.6575 -87.7764 North 154 177 6,000  Level Chicago Center
Fri 05:36:18 PM 42.7006 -87.7692 North 157 181 6,000  Level Chicago Center
Fri 05:37:20 PM 42.7456 -87.7656 North 162 186 6,000  Level Chicago Center
Fri 05:38:22 PM 42.7775 -87.8000 322° Northwest 150 173 6,000  Level Chicago Center
Fri 05:39:25 PM 42.7908 -87.8622 286° West 144 166 6,000  Level Chicago Center
Fri 05:40:27 PM 42.8047 -87.9128 291° West 143 165 6,000  Level Chicago Center
Fri 05:41:29 PM 42.8239 -87.9622 298° West 146 168 6,000  Level Chicago Center
Fri 05:42:31 PM 42.8436 -88.0086 300° West 143 165 6,000  Level Chicago Center
Fri 05:43:33 PM 42.8614 -88.0564 297° West 142 163 6,000  Level Chicago Center
Fri 05:44:35 PM 42.8817 -88.1103 297° West 139 160 6,000 387 Level Chicago Center
Fri 05:45:37 PM 42.9158 -88.1325 335° Northwest 134 154 6,800 629 Climbing Chicago Center
Fri 05:46:39 PM 42.9458 -88.1528 334° Northwest 123 142 7,300 387 Climbing Chicago Center
Fri 05:47:41 PM 42.9761 -88.1789 328° Northwest 128 147 7,600 336 Climbing Chicago Center
Fri 05:48:44 PM 43.0108 -88.2039 332° Northwest 140 161 8,000 192 Climbing Chicago Center
Fri 05:49:46 PM 43.0539 -88.2347 332° Northwest 151 174 8,000  Level Chicago Center
Fri 05:50:48 PM 43.0925 -88.2631 332° Northwest 158 182 8,000  Level Chicago Center
Fri 05:51:50 PM 43.1331 -88.2903 334° Northwest 162 186 8,000  Level Chicago Center
Fri 05:52:52 PM 43.1728 -88.3194 332° Northwest 162 186 8,000  Level Chicago Center
Fri 05:53:54 PM 43.2189 -88.3525 332° Northwest 161 185 8,000  Level Chicago Center
Fri 05:54:56 PM 43.2581 -88.3803 333° Northwest 160 184 8,000  Level Chicago Center
Fri 05:55:58 PM 43.2958 -88.4089 331° Northwest 156 180 8,000  Level Chicago Center
Fri 05:57:01 PM 43.3356 -88.4367 333° Northwest 159 183 8,000  Level Chicago Center
Fri 05:58:03 PM 43.3744 -88.4656 332° Northwest 159 183 8,000 48 Level Chicago Center
Fri 05:59:05 PM 43.4206 -88.4997 332° Northwest 159 183 8,100  Climbing Chicago Center
Fri 06:00:07 PM 43.4633 -88.5317 332° Northwest 163 188 8,000 -48 Descending Chicago Center
Fri 06:01:09 PM 43.5033 -88.5592 333° Northwest 162 186 8,000 48 Level Chicago Center
Fri 06:02:11 PM 43.5422 -88.5881 332° Northwest 160 184 8,100 48 Climbing Chicago Center
Fri 06:03:13 PM 43.5817 -88.6169 332° Northwest 160 184 8,100 48 Level Chicago Center
Fri 06:04:15 PM 43.6211 -88.6461 332° Northwest 161 185 8,200 -48 Climbing Chicago Center
Fri 06:05:18 PM 43.6667 -88.6800 332° Northwest 161 185 8,000 -96 Descending Chicago Center
Fri 06:06:20 PM 43.7053 -88.7086 332° Northwest 159 183 8,000 48 Level Chicago Center
Fri 06:07:22 PM 43.7436 -88.7375 331° Northwest 158 182 8,100  Climbing Chicago Center
Fri 06:08:24 PM 43.7831 -88.7661 332° Northwest 159 183 8,000 -48 Descending Chicago Center
Fri 06:09:26 PM 43.8217 -88.7950 332° Northwest 159 183 8,000 48 Level Chicago Center
Fri 06:10:28 PM 43.8669 -88.8292 331° Northwest 159 183 8,100 48 Climbing Chicago Center
Fri 06:11:30 PM 43.9058 -88.8583 332° Northwest 159 183 8,100 -56 Level Chicago Center
Fri 06:12:16 PM 43.9319 -88.8769 333° Northwest 160 184 8,000 -56 Descending Minneapolis Center
Fri 06:13:18 PM 43.9783 -88.9122 331° Northwest 161 185 8,000 48 Level Minneapolis Center
Fri 06:14:20 PM 44.0175 -88.9408 332° Northwest 161 185 8,100 48 Climbing Minneapolis Center
Fri 06:15:22 PM 44.0572 -88.9711 331° Northwest 162 186 8,100  Level Minneapolis Center
Fri 06:16:24 PM 44.0978 -89.0006 332° Northwest 163 188 8,100  Level Minneapolis Center
Fri 06:17:26 PM 44.1372 -89.0292 333° Northwest 163 188 8,100 -48 Level Minneapolis Center
Fri 06:18:28 PM 44.1817 -89.0650 330° Northwest 159 183 8,000  Descending Minneapolis Center
Fri 06:19:42 PM 44.2225 -89.0936 333° Northwest 163 188 8,100 44 Climbing Minneapolis Center
Fri 06:20:45 PM 44.2736 -89.1317 332° Northwest 163 188 8,100  Level Minneapolis Center
Fri 06:21:47 PM 44.3156 -89.1642 331° Northwest 165 190 8,100 -48 Level Minneapolis Center
Fri 06:22:49 PM 44.3564 -89.1933 333° Northwest 160 184 8,000  Descending Minneapolis Center
Fri 06:23:51 PM 44.3989 -89.2253 332° Northwest 165 190 8,100 48 Climbing Minneapolis Center
Fri 06:24:53 PM 44.4369 -89.2547 331° Northwest 164 189 8,100 -48 Level Minneapolis Center
Fri 06:25:55 PM 44.4794 -89.2864 332° Northwest 165 190 8,000  Descending Minneapolis Center
Fri 06:26:57 PM 44.5208 -89.3178 332° Northwest 162 186 8,100  Climbing Minneapolis Center
Fri 06:29:01 PM 44.6033 -89.3814 331° Northwest 164 189 8,000 -32 Descending Minneapolis Center
Fri 06:30:04 PM 44.6447 -89.4128 332° Northwest 162 186 8,000 48 Level Minneapolis Center
Fri 06:31:06 PM 44.6875 -89.4450 332° Northwest 165 190 8,100  Climbing Minneapolis Center
Fri 06:32:08 PM 44.7286 -89.4772 331° Northwest 164 189 8,000 -48 Descending Minneapolis Center
Fri 06:33:10 PM 44.7667 -89.5067 331° Northwest 163 188 8,000 48 Level Minneapolis Center
Fri 06:34:12 PM 44.8089 -89.5381 332° Northwest 164 189 8,100 48 Climbing Minneapolis Center
Fri 06:35:14 PM 44.8514 -89.5697 332° Northwest 166 191 8,100  Level Minneapolis Center
Fri 06:36:16 PM 44.8936 -89.6017 332° Northwest 164 189 8,100 -48 Level Minneapolis Center
Fri 06:37:18 PM 44.9342 -89.6342 330° Northwest 162 186 8,000 -48 Descending Minneapolis Center
Fri 06:38:20 PM 44.9753 -89.6656 332° Northwest 162 186 8,000  Level Minneapolis Center
Fri 06:39:23 PM 45.0161 -89.6983 330° Northwest 161 185 8,000  Level Minneapolis Center
Fri 06:40:25 PM 45.0575 -89.7311 331° Northwest 161 185 8,000  Level Minneapolis Center
Fri 06:41:27 PM 45.0908 -89.7550 333° Northwest 159 183 8,000 48 Level Minneapolis Center
Fri 06:42:29 PM 45.1372 -89.7914 331° Northwest 160 184 8,100 48 Climbing Minneapolis Center
Fri 06:43:31 PM 45.1769 -89.8217 332° Northwest 161 185 8,100 -48 Level Minneapolis Center
Fri 06:44:33 PM 45.2150 -89.8528 330° Northwest 159 183 8,000  Descending Minneapolis Center
Fri 06:45:35 PM 45.2547 -89.8819 333° Northwest 160 184 8,100 48 Climbing Minneapolis Center
Fri 06:46:37 PM 45.2878 -89.9228 319° Northwest 160 184 8,100  Level Minneapolis Center
Fri 06:47:39 PM 45.3114 -89.9744 303° West 158 182 8,100 -48 Level Minneapolis Center
Fri 06:48:41 PM 45.3258 -90.0486 286° West 163 188 8,000  Descending Minneapolis Center
Fri 06:49:43 PM 45.3267 -90.1133 271° West 164 189 8,100  Climbing Minneapolis Center
Fri 06:50:46 PM 45.3275 -90.1783 271° West 164 189 8,000  Descending Minneapolis Center
Fri 06:51:48 PM 45.3289 -90.2425 272° West 164 189 8,100  Climbing Minneapolis Center
Fri 06:52:50 PM 45.3383 -90.3056 282° West 162 186 8,000  Descending Minneapolis Center
Fri 06:53:52 PM 45.3506 -90.3661 286° West 161 185 8,100 48 Climbing Minneapolis Center
Fri 06:54:54 PM 45.3800 -90.4256 305° West 157 181 8,100 -48 Level Minneapolis Center
Fri 06:55:56 PM 45.4033 -90.4814 301° West 158 182 8,000 -48 Descending Minneapolis Center
Fri 06:56:58 PM 45.4269 -90.5375 301° West 162 186 8,000  Level Minneapolis Center
Fri 06:58:00 PM 45.4497 -90.5919 301° West 161 185 8,000  Level Minneapolis Center
Fri 06:59:02 PM 45.4733 -90.6472 301° West 162 186 8,000  Level Minneapolis Center
Fri 07:00:04 PM 45.4958 -90.7022 300° West 161 185 8,000  Level Minneapolis Center
Fri 07:01:06 PM 45.5233 -90.7700 300° West 163 188 8,000 -96 Level Minneapolis Center
Fri 07:02:09 PM 45.5467 -90.8269 300° West 165 190 7,800 -480 Descending Minneapolis Center
Fri 07:03:11 PM 45.5719 -90.8914 299° West 176 203 7,000 -774 Descending Minneapolis Center
Fri 07:04:13 PM 45.6003 -90.9564 302° West 183 211 6,200 -726 Descending Minneapolis Center
Fri 07:05:15 PM 45.6289 -91.0222 302° West 189 217 5,500 -581 Descending Minneapolis Center
Fri 07:06:17 PM 45.6550 -91.0886 299° West 192 221 5,000 -242 Descending Minneapolis Center
Fri 07:07:19 PM 45.6797 -91.1506 300° West 188 216 5,000  Level Minneapolis Center
Fri 07:08:21 PM 45.7092 -91.2197 301° West 179 206 5,000 -48 Level Minneapolis Center
Fri 07:09:23 PM 45.7319 -91.2767 300° West 178 205 4,900 -97 Descending Minneapolis Center
Fri 07:11:00 PM 45.7664 -91.3604 301° West  Level FlightAware Approximate
Fri 07:18:00 PM 45.9661 -91.4656 24° Northeast  Level FlightAware Approximate
Fri 07:19:00 PM 46.0045 -91.4411 24° Northeast  Level FlightAware Approximate
Fri 07:20:00 PM 46.0167 -91.4333 North  Level FlightAware Approximate
Fri 07:21:00 PM 46.0253 -91.4443 North  Level Estimated
Fri 07:22:00 PM 46.0253 -91.4443 North  Level Estimated
Fri 07:23:00 PM 46.0253 -91.4443 North  Level Estimated

Login

Don't have an account? Register now (free) for customized features, flight alerts, and more!